UAE202 KJFK-OMDB
Flight info
| Callsign | UAE202 |
|---|---|
| Flight time | N/A |
| Altitude | 31000 |
| Route | GREKI DCT JUDDS DCT CAM DCT EBONY N633A RIKAL/M085F320 NATS SOVED/N0485F330 DCT LUTOV DCT MAKUX DCT SOSIM L15 MOTOX DCT RUCAC DCT LESDO DCT ETINO/N0485F350 DCT DEVDI DCT RIPUS DCT RESIA DCT BELOV DCT LATAN DCT SALUN N705 MMA P751 DASUM Y234 FYM M872 ALMOD/N0489F370 M872 BDB Y214 RAPMA DCT KUVSO DCT KATIT DCT PEKEM M628 RIGIL G783 ELUDA/N0501F350 G783 ASPED Q308 KIPOK Q568 IMPED |
| Aircraft | B77W/H-SDE1E2E3FGHIJ2J3J4J5M1RWXY/LB1D1 |
Departure
| Time | N/A |
|---|---|
| Airport | John F. Kennedy International Airport (KJFK) |
Arrival
| Time | 2026-05-06 12:59 |
|---|---|
| Airport | Dubai International Airport (OMDB) |
| Time | Latitude | Longitude | Altitude | Speed | Heading |
|---|---|---|---|---|---|
| 2026-05-06 10:40 | 25.27881 | 38.29054 | 36920 ft | 520 kts | 128° |
| 2026-05-06 10:41 | 25.24333 | 38.36025 | 36914 ft | 521 kts | 128° |
| 2026-05-06 10:41 | 25.20772 | 38.43017 | 36952 ft | 524 kts | 128° |
| 2026-05-06 10:42 | 25.17205 | 38.50018 | 36926 ft | 524 kts | 128° |
| 2026-05-06 10:42 | 25.13613 | 38.57033 | 36926 ft | 525 kts | 128° |
| 2026-05-06 10:43 | 25.10017 | 38.64061 | 36909 ft | 526 kts | 128° |
| 2026-05-06 10:44 | 25.04628 | 38.74595 | 36935 ft | 525 kts | 128° |
| 2026-05-06 10:44 | 25.01033 | 38.81596 | 36957 ft | 524 kts | 128° |
| 2026-05-06 10:45 | 24.97439 | 38.88587 | 36944 ft | 525 kts | 128° |
| 2026-05-06 10:45 | 24.93837 | 38.95573 | 36945 ft | 524 kts | 128° |
| 2026-05-06 10:46 | 24.90258 | 39.02453 | 36951 ft | 524 kts | 128° |
| 2026-05-06 10:46 | 24.86628 | 39.09432 | 36947 ft | 525 kts | 128° |
| 2026-05-06 10:47 | 24.83001 | 39.16409 | 36940 ft | 525 kts | 128° |
| 2026-05-06 10:47 | 24.79369 | 39.23379 | 36955 ft | 525 kts | 128° |
| 2026-05-06 10:48 | 24.75734 | 39.30348 | 36961 ft | 525 kts | 128° |
| 2026-05-06 10:48 | 24.72101 | 39.37307 | 36957 ft | 524 kts | 128° |
| 2026-05-06 10:49 | 24.68467 | 39.44260 | 36956 ft | 525 kts | 129° |
| 2026-05-06 10:49 | 24.64822 | 39.51214 | 36965 ft | 525 kts | 129° |
| 2026-05-06 10:50 | 24.61204 | 39.58118 | 36946 ft | 524 kts | 129° |
| 2026-05-06 10:50 | 24.57574 | 39.65058 | 36961 ft | 526 kts | 127° |
| 2026-05-06 10:51 | 24.54826 | 39.72635 | 36976 ft | 542 kts | 112° |
| 2026-05-06 10:51 | 24.53514 | 39.80879 | 36952 ft | 553 kts | 102° |
| 2026-05-06 10:52 | 24.52807 | 39.89297 | 36962 ft | 553 kts | 101° |
| 2026-05-06 10:52 | 24.52088 | 39.97702 | 36965 ft | 552 kts | 102° |
| 2026-05-06 10:53 | 24.51302 | 40.05997 | 36957 ft | 551 kts | 102° |
| 2026-05-06 10:53 | 24.50477 | 40.14356 | 36978 ft | 550 kts | 102° |
| 2026-05-06 10:54 | 24.49652 | 40.22707 | 36963 ft | 550 kts | 102° |
| 2026-05-06 10:54 | 24.48829 | 40.31045 | 36973 ft | 549 kts | 102° |
| 2026-05-06 10:55 | 24.48004 | 40.39384 | 36970 ft | 549 kts | 102° |
| 2026-05-06 10:55 | 24.47173 | 40.47717 | 36953 ft | 549 kts | 102° |
| 2026-05-06 10:56 | 24.46339 | 40.56047 | 36970 ft | 549 kts | 102° |
| 2026-05-06 10:56 | 24.45501 | 40.64376 | 36976 ft | 549 kts | 102° |
| 2026-05-06 10:57 | 24.44665 | 40.72699 | 36986 ft | 549 kts | 102° |
| 2026-05-06 10:57 | 24.43826 | 40.81030 | 36978 ft | 550 kts | 102° |
| 2026-05-06 10:58 | 24.42981 | 40.89366 | 36972 ft | 550 kts | 102° |
| 2026-05-06 10:58 | 24.42132 | 40.97704 | 36964 ft | 549 kts | 102° |
| 2026-05-06 10:59 | 24.41287 | 41.05958 | 36980 ft | 549 kts | 102° |
| 2026-05-06 10:59 | 24.40421 | 41.14276 | 36964 ft | 548 kts | 103° |
| 2026-05-06 11:00 | 24.39542 | 41.22580 | 36978 ft | 548 kts | 103° |
| 2026-05-06 11:00 | 24.38661 | 41.30874 | 36991 ft | 547 kts | 103° |
| 2026-05-06 11:01 | 24.37784 | 41.39109 | 36985 ft | 547 kts | 103° |
| 2026-05-06 11:01 | 24.36897 | 41.47392 | 36990 ft | 547 kts | 103° |
| 2026-05-06 11:02 | 24.36001 | 41.55726 | 36992 ft | 547 kts | 103° |
| 2026-05-06 11:02 | 24.35112 | 41.63945 | 36985 ft | 546 kts | 103° |
| 2026-05-06 11:03 | 24.34215 | 41.72203 | 36992 ft | 545 kts | 103° |
| 2026-05-06 11:03 | 24.33297 | 41.80457 | 36973 ft | 544 kts | 104° |
| 2026-05-06 11:04 | 24.31642 | 41.88459 | 36990 ft | 535 kts | 113° |
| 2026-05-06 11:04 | 24.29516 | 41.96271 | 36994 ft | 535 kts | 114° |
| 2026-05-06 11:05 | 24.27414 | 42.04011 | 36987 ft | 536 kts | 114° |
| 2026-05-06 11:05 | 24.25326 | 42.11864 | 36996 ft | 537 kts | 113° |
| 2026-05-06 11:06 | 24.23248 | 42.19735 | 37003 ft | 538 kts | 113° |
| 2026-05-06 11:06 | 24.21163 | 42.27613 | 37004 ft | 538 kts | 113° |
| 2026-05-06 11:07 | 24.19071 | 42.35491 | 37006 ft | 539 kts | 113° |
| 2026-05-06 11:07 | 24.16969 | 42.43371 | 36987 ft | 539 kts | 113° |
| 2026-05-06 11:08 | 24.14864 | 42.51252 | 37000 ft | 539 kts | 113° |
| 2026-05-06 11:08 | 24.12759 | 42.59119 | 37007 ft | 539 kts | 113° |
| 2026-05-06 11:09 | 24.10650 | 42.66979 | 36995 ft | 538 kts | 113° |
| 2026-05-06 11:09 | 24.08542 | 42.74822 | 37002 ft | 537 kts | 113° |
| 2026-05-06 11:10 | 24.06431 | 42.82657 | 37003 ft | 536 kts | 113° |
| 2026-05-06 11:10 | 24.04319 | 42.90478 | 37001 ft | 536 kts | 113° |
| 2026-05-06 11:11 | 24.02222 | 42.98236 | 36995 ft | 535 kts | 113° |
| 2026-05-06 11:11 | 24.00469 | 43.04711 | 36985 ft | 535 kts | 113° |
| 2026-05-06 11:12 | 23.98018 | 43.13754 | 36989 ft | 534 kts | 113° |
| 2026-05-06 11:12 | 23.95905 | 43.21525 | 36993 ft | 533 kts | 113° |
| 2026-05-06 11:13 | 23.94133 | 43.28029 | 36987 ft | 533 kts | 112° |
| 2026-05-06 11:13 | 23.92016 | 43.35787 | 36992 ft | 533 kts | 112° |
| 2026-05-06 11:14 | 23.89907 | 43.43496 | 36974 ft | 533 kts | 112° |
| 2026-05-06 11:14 | 23.87782 | 43.51251 | 36975 ft | 533 kts | 112° |
| 2026-05-06 11:15 | 23.85654 | 43.58999 | 36975 ft | 533 kts | 112° |
| 2026-05-06 11:15 | 23.83520 | 43.66750 | 36969 ft | 533 kts | 112° |
| 2026-05-06 11:16 | 23.81385 | 43.74491 | 36966 ft | 533 kts | 112° |
| 2026-05-06 11:16 | 23.79244 | 43.82240 | 36952 ft | 533 kts | 112° |
| 2026-05-06 11:17 | 23.77365 | 43.90085 | 36944 ft | 538 kts | 105° |
| 2026-05-06 11:17 | 23.76581 | 43.98245 | 36942 ft | 542 kts | 98° |
| 2026-05-06 11:18 | 23.76059 | 44.06382 | 36925 ft | 542 kts | 98° |
| 2026-05-06 11:18 | 23.75492 | 44.14577 | 36949 ft | 541 kts | 99° |
| 2026-05-06 11:19 | 23.74879 | 44.22762 | 36924 ft | 541 kts | 99° |
| 2026-05-06 11:19 | 23.74250 | 44.30940 | 36935 ft | 541 kts | 99° |
| 2026-05-06 11:20 | 23.73622 | 44.39114 | 36937 ft | 540 kts | 99° |
| 2026-05-06 11:20 | 23.72997 | 44.47228 | 36941 ft | 540 kts | 99° |
| 2026-05-06 11:21 | 23.72364 | 44.55393 | 36947 ft | 539 kts | 99° |
| 2026-05-06 11:21 | 23.71728 | 44.63542 | 36938 ft | 539 kts | 99° |
| 2026-05-06 11:22 | 23.71088 | 44.71681 | 36948 ft | 538 kts | 99° |
| 2026-05-06 11:22 | 23.70446 | 44.79792 | 36951 ft | 537 kts | 99° |
| 2026-05-06 11:23 | 23.69799 | 44.87916 | 36949 ft | 537 kts | 99° |
| 2026-05-06 11:23 | 23.69146 | 44.96025 | 36966 ft | 537 kts | 99° |
| 2026-05-06 11:24 | 23.68495 | 45.04043 | 36932 ft | 537 kts | 99° |
| 2026-05-06 11:24 | 23.67834 | 45.12157 | 36947 ft | 537 kts | 99° |
| 2026-05-06 11:25 | 23.67168 | 45.20269 | 36950 ft | 537 kts | 99° |
| 2026-05-06 11:25 | 23.66500 | 45.28377 | 36936 ft | 537 kts | 99° |
| 2026-05-06 11:26 | 23.65830 | 45.36486 | 36941 ft | 537 kts | 99° |
| 2026-05-06 11:26 | 23.65155 | 45.44594 | 36936 ft | 537 kts | 99° |
| 2026-05-06 11:27 | 23.64476 | 45.52698 | 36920 ft | 537 kts | 99° |
| 2026-05-06 11:27 | 23.63795 | 45.60793 | 36925 ft | 535 kts | 99° |
| 2026-05-06 11:28 | 23.63111 | 45.68876 | 36925 ft | 534 kts | 99° |
| 2026-05-06 11:28 | 23.62424 | 45.76933 | 36901 ft | 534 kts | 99° |
| 2026-05-06 11:29 | 23.61735 | 45.84982 | 36907 ft | 533 kts | 99° |
| 2026-05-06 11:29 | 23.61043 | 45.93022 | 36899 ft | 532 kts | 99° |
| 2026-05-06 11:30 | 23.60353 | 46.00983 | 36900 ft | 532 kts | 99° |
| 2026-05-06 11:30 | 23.59654 | 46.09004 | 36920 ft | 531 kts | 99° |
| 2026-05-06 11:31 | 23.58950 | 46.17025 | 36921 ft | 532 kts | 99° |
| 2026-05-06 11:31 | 23.58243 | 46.25054 | 36898 ft | 533 kts | 99° |
| 2026-05-06 11:32 | 23.57533 | 46.33039 | 36919 ft | 533 kts | 99° |
| 2026-05-06 11:32 | 23.56816 | 46.41085 | 36895 ft | 534 kts | 99° |
| 2026-05-06 11:33 | 23.56093 | 46.49147 | 36903 ft | 535 kts | 99° |
| 2026-05-06 11:33 | 23.55362 | 46.57212 | 36890 ft | 535 kts | 99° |
| 2026-05-06 11:34 | 23.54618 | 46.65284 | 36887 ft | 535 kts | 99° |
| 2026-05-06 11:34 | 23.53870 | 46.73342 | 36863 ft | 535 kts | 99° |
| 2026-05-06 11:35 | 23.53119 | 46.81404 | 36853 ft | 534 kts | 99° |
| 2026-05-06 11:35 | 23.52366 | 46.89451 | 36857 ft | 534 kts | 99° |
| 2026-05-06 11:36 | 23.51609 | 46.97502 | 36844 ft | 534 kts | 99° |
| 2026-05-06 11:36 | 23.50855 | 47.05465 | 36838 ft | 534 kts | 99° |
| 2026-05-06 11:37 | 23.50090 | 47.13509 | 36822 ft | 534 kts | 99° |
| 2026-05-06 11:37 | 23.49322 | 47.21542 | 36831 ft | 533 kts | 99° |
| 2026-05-06 11:38 | 23.48549 | 47.29570 | 36822 ft | 533 kts | 99° |
| 2026-05-06 11:38 | 23.47774 | 47.37588 | 36827 ft | 532 kts | 99° |
| 2026-05-06 11:39 | 23.47001 | 47.45550 | 36804 ft | 532 kts | 99° |
| 2026-05-06 11:39 | 23.46219 | 47.53553 | 36817 ft | 531 kts | 99° |
| 2026-05-06 11:40 | 23.45440 | 47.61546 | 36809 ft | 531 kts | 99° |
| 2026-05-06 11:40 | 23.44660 | 47.69541 | 36789 ft | 530 kts | 99° |
| 2026-05-06 11:41 | 23.43877 | 47.77519 | 36789 ft | 530 kts | 99° |
| 2026-05-06 11:41 | 23.43090 | 47.85489 | 36788 ft | 529 kts | 99° |
| 2026-05-06 11:42 | 23.42299 | 47.93447 | 36778 ft | 528 kts | 99° |
| 2026-05-06 11:42 | 23.41515 | 48.01307 | 36785 ft | 528 kts | 99° |
| 2026-05-06 11:43 | 23.40717 | 48.09259 | 36777 ft | 528 kts | 99° |
| 2026-05-06 11:43 | 23.39915 | 48.17213 | 36771 ft | 528 kts | 99° |
| 2026-05-06 11:44 | 23.38707 | 48.29134 | 36768 ft | 528 kts | 99° |
| 2026-05-06 11:44 | 23.38019 | 48.37094 | 36760 ft | 529 kts | 96° |
| 2026-05-06 11:45 | 23.37704 | 48.45088 | 36764 ft | 529 kts | 95° |
| 2026-05-06 11:45 | 23.37432 | 48.53086 | 36764 ft | 529 kts | 95° |
| 2026-05-06 11:46 | 23.37126 | 48.61082 | 36766 ft | 528 kts | 95° |
| 2026-05-06 11:46 | 23.36795 | 48.69068 | 36759 ft | 528 kts | 95° |
| 2026-05-06 11:47 | 23.36462 | 48.77000 | 36761 ft | 528 kts | 95° |
| 2026-05-06 11:47 | 23.36123 | 48.85030 | 36759 ft | 528 kts | 95° |
| 2026-05-06 11:48 | 23.35786 | 48.92948 | 36753 ft | 527 kts | 95° |
| 2026-05-06 11:48 | 23.35447 | 49.00840 | 36747 ft | 527 kts | 95° |
| 2026-05-06 11:49 | 23.34953 | 49.08780 | 36749 ft | 524 kts | 100° |
| 2026-05-06 11:49 | 23.33846 | 49.16603 | 36751 ft | 523 kts | 102° |
| 2026-05-06 11:50 | 23.32661 | 49.24405 | 36745 ft | 523 kts | 102° |
| 2026-05-06 11:50 | 23.31500 | 49.32216 | 36745 ft | 523 kts | 102° |
| 2026-05-06 11:51 | 23.30363 | 49.40041 | 36740 ft | 524 kts | 101° |
| 2026-05-06 11:51 | 23.29230 | 49.47874 | 36733 ft | 524 kts | 101° |
| 2026-05-06 11:52 | 23.28092 | 49.55703 | 36742 ft | 524 kts | 101° |
| 2026-05-06 11:52 | 23.26948 | 49.63528 | 36743 ft | 524 kts | 101° |
| 2026-05-06 11:53 | 23.25799 | 49.71349 | 36742 ft | 524 kts | 102° |
| 2026-05-06 11:53 | 23.24647 | 49.79166 | 36742 ft | 524 kts | 101° |
| 2026-05-06 11:54 | 23.23490 | 49.86989 | 36739 ft | 524 kts | 102° |
| 2026-05-06 11:54 | 23.22330 | 49.94809 | 36741 ft | 524 kts | 102° |
| 2026-05-06 11:55 | 23.21175 | 50.02563 | 36731 ft | 524 kts | 101° |
| 2026-05-06 11:55 | 23.20008 | 50.10375 | 36741 ft | 524 kts | 102° |
| 2026-05-06 11:56 | 23.18837 | 50.18188 | 36736 ft | 524 kts | 102° |
| 2026-05-06 11:56 | 23.17662 | 50.25995 | 36732 ft | 524 kts | 102° |
| 2026-05-06 11:57 | 23.16483 | 50.33804 | 36737 ft | 524 kts | 102° |
| 2026-05-06 11:57 | 23.15300 | 50.41612 | 36737 ft | 524 kts | 102° |
| 2026-05-06 11:58 | 23.14113 | 50.49419 | 36731 ft | 524 kts | 102° |
| 2026-05-06 11:58 | 23.12922 | 50.57227 | 36727 ft | 524 kts | 102° |
| 2026-05-06 11:59 | 23.11727 | 50.65035 | 36734 ft | 524 kts | 101° |
| 2026-05-06 11:59 | 23.10536 | 50.72788 | 36729 ft | 524 kts | 101° |
| 2026-05-06 12:00 | 23.09326 | 50.80643 | 36733 ft | 524 kts | 102° |
| 2026-05-06 12:00 | 23.08128 | 50.88394 | 36731 ft | 524 kts | 102° |
| 2026-05-06 12:01 | 23.06918 | 50.96195 | 36725 ft | 524 kts | 102° |
| 2026-05-06 12:01 | 23.05719 | 51.03897 | 36727 ft | 524 kts | 102° |
| 2026-05-06 12:02 | 23.04698 | 51.10435 | 36709 ft | 524 kts | 101° |
| 2026-05-06 12:02 | 23.03477 | 51.18235 | 36718 ft | 523 kts | 102° |
| 2026-05-06 12:03 | 23.02253 | 51.26022 | 36718 ft | 523 kts | 102° |
| 2026-05-06 12:03 | 23.01028 | 51.33794 | 36723 ft | 522 kts | 102° |
| 2026-05-06 12:04 | 22.99800 | 51.41561 | 36720 ft | 522 kts | 102° |
| 2026-05-06 12:04 | 22.98576 | 51.49273 | 36716 ft | 522 kts | 102° |
| 2026-05-06 12:05 | 22.97341 | 51.57034 | 36715 ft | 522 kts | 102° |
| 2026-05-06 12:05 | 22.96102 | 51.64794 | 36717 ft | 522 kts | 102° |
| 2026-05-06 12:06 | 22.94860 | 51.72549 | 36716 ft | 522 kts | 102° |
| 2026-05-06 12:06 | 22.93613 | 51.80304 | 36712 ft | 522 kts | 102° |
| 2026-05-06 12:07 | 22.92362 | 51.88063 | 36715 ft | 522 kts | 102° |
| 2026-05-06 12:07 | 22.91107 | 51.95823 | 36713 ft | 522 kts | 102° |
| 2026-05-06 12:08 | 22.89858 | 52.03518 | 36714 ft | 522 kts | 102° |
| 2026-05-06 12:08 | 22.88595 | 52.11279 | 36715 ft | 523 kts | 102° |
| 2026-05-06 12:09 | 22.87328 | 52.19039 | 36715 ft | 523 kts | 102° |
| 2026-05-06 12:09 | 22.86056 | 52.26803 | 36706 ft | 523 kts | 102° |
| 2026-05-06 12:10 | 22.84783 | 52.34556 | 36711 ft | 522 kts | 102° |
| 2026-05-06 12:10 | 22.83507 | 52.42300 | 36716 ft | 522 kts | 102° |
| 2026-05-06 12:11 | 22.82355 | 52.50059 | 36724 ft | 522 kts | 97° |
| 2026-05-06 12:11 | 22.82068 | 52.57924 | 36721 ft | 522 kts | 92° |
| 2026-05-06 12:12 | 22.81938 | 52.65798 | 36707 ft | 522 kts | 92° |
| 2026-05-06 12:12 | 22.81776 | 52.73672 | 36709 ft | 522 kts | 92° |
| 2026-05-06 12:13 | 22.81574 | 52.81542 | 36719 ft | 523 kts | 92° |
| 2026-05-06 12:13 | 22.81358 | 52.89417 | 36717 ft | 523 kts | 92° |
| 2026-05-06 12:14 | 22.81140 | 52.97300 | 36724 ft | 523 kts | 92° |
| 2026-05-06 12:14 | 22.80923 | 53.05100 | 36716 ft | 523 kts | 92° |
| 2026-05-06 12:15 | 22.80701 | 53.12976 | 36717 ft | 523 kts | 92° |
| 2026-05-06 12:15 | 22.80475 | 53.20843 | 36714 ft | 522 kts | 92° |
| 2026-05-06 12:16 | 22.80247 | 53.28640 | 36724 ft | 522 kts | 92° |
| 2026-05-06 12:16 | 22.80012 | 53.36538 | 36728 ft | 522 kts | 92° |
| 2026-05-06 12:17 | 22.79776 | 53.44343 | 36723 ft | 522 kts | 92° |
| 2026-05-06 12:17 | 22.79534 | 53.52203 | 36725 ft | 522 kts | 93° |
| 2026-05-06 12:18 | 22.79288 | 53.60073 | 36712 ft | 522 kts | 93° |
| 2026-05-06 12:18 | 22.79039 | 53.67936 | 36719 ft | 522 kts | 93° |
| 2026-05-06 12:19 | 22.78786 | 53.75798 | 36730 ft | 522 kts | 93° |
| 2026-05-06 12:19 | 22.78529 | 53.83664 | 36723 ft | 522 kts | 93° |
| 2026-05-06 12:20 | 22.78269 | 53.91532 | 36721 ft | 522 kts | 93° |
| 2026-05-06 12:20 | 22.78272 | 53.99396 | 36722 ft | 522 kts | 86° |
| 2026-05-06 12:21 | 22.79413 | 54.07079 | 36727 ft | 522 kts | 77° |
| 2026-05-06 12:21 | 22.81036 | 54.14747 | 36726 ft | 522 kts | 77° |
| 2026-05-06 12:22 | 22.82649 | 54.22420 | 36723 ft | 522 kts | 77° |
| 2026-05-06 12:22 | 22.84217 | 54.30104 | 36726 ft | 522 kts | 77° |
| 2026-05-06 12:23 | 22.85763 | 54.37793 | 36732 ft | 522 kts | 77° |
| 2026-05-06 12:23 | 22.87306 | 54.45486 | 36732 ft | 522 kts | 77° |
| 2026-05-06 12:24 | 22.88849 | 54.53186 | 36734 ft | 522 kts | 77° |
| 2026-05-06 12:24 | 22.90390 | 54.60886 | 36734 ft | 523 kts | 77° |
| 2026-05-06 12:25 | 22.91928 | 54.68594 | 36732 ft | 523 kts | 77° |
| 2026-05-06 12:25 | 22.93463 | 54.76310 | 36730 ft | 523 kts | 77° |
| 2026-05-06 12:26 | 22.94995 | 54.84028 | 36738 ft | 523 kts | 77° |
| 2026-05-06 12:26 | 22.96523 | 54.91747 | 36740 ft | 524 kts | 78° |
| 2026-05-06 12:27 | 22.98048 | 54.99473 | 36748 ft | 524 kts | 78° |
| 2026-05-06 12:27 | 22.99540 | 55.07055 | 36749 ft | 524 kts | 78° |
| 2026-05-06 12:28 | 23.01058 | 55.14784 | 36752 ft | 523 kts | 77° |
| 2026-05-06 12:28 | 23.02148 | 55.18520 | 36744 ft | 519 kts | 62° |
| 2026-05-06 12:28 | 23.04102 | 55.21774 | 36765 ft | 514 kts | 45° |
| 2026-05-06 12:29 | 23.06731 | 55.24365 | 36771 ft | 509 kts | 33° |
| 2026-05-06 12:29 | 23.09770 | 55.26307 | 36753 ft | 505 kts | 19° |
| 2026-05-06 12:29 | 23.16448 | 55.28345 | 36776 ft | 500 kts | 10° |
| 2026-05-06 12:30 | 23.23218 | 55.30183 | 36773 ft | 504 kts | 11° |
| 2026-05-06 12:30 | 23.30018 | 55.32138 | 36776 ft | 506 kts | 11° |
| 2026-05-06 12:31 | 23.36828 | 55.34147 | 36759 ft | 508 kts | 11° |
| 2026-05-06 12:31 | 23.43644 | 55.36158 | 36776 ft | 507 kts | 11° |
| 2026-05-06 12:32 | 23.50448 | 55.38160 | 36774 ft | 506 kts | 11° |
| 2026-05-06 12:32 | 23.57231 | 55.40166 | 36775 ft | 504 kts | 11° |
| 2026-05-06 12:33 | 23.63990 | 55.42178 | 36776 ft | 503 kts | 11° |
| 2026-05-06 12:33 | 23.70732 | 55.44186 | 36778 ft | 502 kts | 11° |
| 2026-05-06 12:34 | 23.73094 | 55.44890 | 36793 ft | 502 kts | 11° |
| 2026-05-06 12:35 | 23.79352 | 55.46756 | 36329 ft | 493 kts | 11° |
| 2026-05-06 12:36 | 23.82647 | 55.47740 | 35845 ft | 488 kts | 11° |
| 2026-05-06 12:36 | 23.85909 | 55.48713 | 35389 ft | 484 kts | 11° |
| 2026-05-06 12:36 | 23.89136 | 55.49672 | 34927 ft | 479 kts | 11° |
| 2026-05-06 12:36 | 23.92344 | 55.50625 | 34491 ft | 475 kts | 11° |
| 2026-05-06 12:37 | 23.95524 | 55.51571 | 34047 ft | 472 kts | 11° |
| 2026-05-06 12:37 | 23.98636 | 55.52715 | 33556 ft | 474 kts | 19° |
| 2026-05-06 12:37 | 24.01568 | 55.54345 | 33077 ft | 474 kts | 27° |
| 2026-05-06 12:37 | 24.04306 | 55.56353 | 32596 ft | 475 kts | 35° |
| 2026-05-06 12:38 | 24.06798 | 55.58714 | 32126 ft | 473 kts | 39° |
| 2026-05-06 12:38 | 24.09213 | 55.61146 | 31674 ft | 470 kts | 40° |
| 2026-05-06 12:38 | 24.11598 | 55.63577 | 31205 ft | 467 kts | 40° |
| 2026-05-06 12:38 | 24.13971 | 55.65985 | 30754 ft | 463 kts | 40° |
| 2026-05-06 12:39 | 24.16337 | 55.68364 | 30332 ft | 460 kts | 40° |
| 2026-05-06 12:39 | 24.18694 | 55.70715 | 29902 ft | 457 kts | 40° |
| 2026-05-06 12:39 | 24.21042 | 55.73046 | 29424 ft | 454 kts | 40° |
| 2026-05-06 12:39 | 24.23373 | 55.75358 | 28988 ft | 449 kts | 40° |
| 2026-05-06 12:40 | 24.25678 | 55.77644 | 28569 ft | 445 kts | 40° |
| 2026-05-06 12:40 | 24.27938 | 55.79888 | 28033 ft | 433 kts | 40° |
| 2026-05-06 12:40 | 24.30153 | 55.82090 | 27239 ft | 427 kts | 40° |
| 2026-05-06 12:40 | 24.32347 | 55.84270 | 26405 ft | 424 kts | 40° |
| 2026-05-06 12:41 | 24.34486 | 55.86397 | 25654 ft | 419 kts | 40° |
| 2026-05-06 12:41 | 24.36629 | 55.88532 | 24953 ft | 413 kts | 40° |
| 2026-05-06 12:41 | 24.38736 | 55.90631 | 24302 ft | 406 kts | 40° |
| 2026-05-06 12:41 | 24.40811 | 55.92702 | 23661 ft | 400 kts | 40° |
| 2026-05-06 12:42 | 24.42854 | 55.94744 | 22923 ft | 395 kts | 40° |
| 2026-05-06 12:42 | 24.44871 | 55.96761 | 22135 ft | 389 kts | 40° |
| 2026-05-06 12:42 | 24.46859 | 55.98749 | 21400 ft | 384 kts | 41° |
| 2026-05-06 12:42 | 24.48786 | 56.00677 | 20719 ft | 379 kts | 41° |
| 2026-05-06 12:43 | 24.50717 | 56.02610 | 20055 ft | 374 kts | 41° |
| 2026-05-06 12:43 | 24.52605 | 56.04500 | 20424 ft | 369 kts | 42° |
| 2026-05-06 12:43 | 24.54496 | 56.06392 | 18809 ft | 365 kts | 42° |
| 2026-05-06 12:43 | 24.56354 | 56.08250 | 18327 ft | 357 kts | 43° |
| 2026-05-06 12:44 | 24.58180 | 56.10066 | 17714 ft | 352 kts | 40° |
| 2026-05-06 12:44 | 24.60208 | 56.11577 | 16992 ft | 356 kts | 27° |
| 2026-05-06 12:44 | 24.62484 | 56.12593 | 16558 ft | 346 kts | 18° |
| 2026-05-06 12:44 | 24.64808 | 56.13136 | 15737 ft | 340 kts | 11° |
| 2026-05-06 12:45 | 24.67142 | 56.13527 | 14852 ft | 343 kts | 9° |
| 2026-05-06 12:45 | 24.69544 | 56.13921 | 14244 ft | 354 kts | 8° |
| 2026-05-06 12:45 | 24.74352 | 56.14554 | 13780 ft | 335 kts | 351° |
| 2026-05-06 12:46 | 24.76472 | 56.13703 | 13405 ft | 321 kts | 323° |
| 2026-05-06 12:46 | 24.78070 | 56.12056 | 12989 ft | 311 kts | 309° |
| 2026-05-06 12:46 | 24.79437 | 56.10229 | 12481 ft | 308 kts | 306° |
| 2026-05-06 12:46 | 24.80744 | 56.08367 | 11921 ft | 307 kts | 306° |
| 2026-05-06 12:47 | 24.82030 | 56.06501 | 11404 ft | 305 kts | 306° |
| 2026-05-06 12:47 | 24.83305 | 56.04650 | 10943 ft | 302 kts | 306° |
| 2026-05-06 12:47 | 24.84570 | 56.02820 | 10475 ft | 300 kts | 306° |
| 2026-05-06 12:47 | 24.85833 | 56.01000 | 10023 ft | 298 kts | 306° |
| 2026-05-06 12:48 | 24.87095 | 55.99189 | 9585 ft | 300 kts | 306° |
| 2026-05-06 12:48 | 24.88352 | 55.97387 | 9311 ft | 293 kts | 305° |
| 2026-05-06 12:48 | 24.89587 | 55.95618 | 8872 ft | 290 kts | 306° |
| 2026-05-06 12:48 | 24.90802 | 55.93874 | 8493 ft | 288 kts | 306° |
| 2026-05-06 12:49 | 24.92027 | 55.92118 | 8237 ft | 289 kts | 306° |
| 2026-05-06 12:49 | 24.93238 | 55.90383 | 8158 ft | 282 kts | 306° |
| 2026-05-06 12:49 | 24.94422 | 55.88690 | 8090 ft | 275 kts | 306° |
| 2026-05-06 12:49 | 24.95575 | 55.87040 | 8030 ft | 268 kts | 306° |
| 2026-05-06 12:50 | 24.96699 | 55.85431 | 7978 ft | 261 kts | 306° |
| 2026-05-06 12:50 | 24.97425 | 55.84390 | 7929 ft | 257 kts | 306° |
| 2026-05-06 12:50 | 24.98495 | 55.82854 | 7854 ft | 250 kts | 306° |
| 2026-05-06 12:50 | 24.99553 | 55.81338 | 7685 ft | 248 kts | 306° |
| 2026-05-06 12:51 | 25.00602 | 55.79834 | 7462 ft | 248 kts | 306° |
| 2026-05-06 12:51 | 25.01648 | 55.78336 | 7111 ft | 247 kts | 307° |
| 2026-05-06 12:51 | 25.02702 | 55.76824 | 6608 ft | 251 kts | 307° |
| 2026-05-06 12:51 | 25.03727 | 55.75255 | 6181 ft | 252 kts | 301° |
| 2026-05-06 12:52 | 25.04643 | 55.73613 | 5806 ft | 250 kts | 300° |
| 2026-05-06 12:52 | 25.05538 | 55.71979 | 5435 ft | 248 kts | 300° |
| 2026-05-06 12:52 | 25.06430 | 55.70361 | 5152 ft | 243 kts | 300° |
| 2026-05-06 12:52 | 25.07293 | 55.68801 | 4940 ft | 234 kts | 300° |
| 2026-05-06 12:53 | 25.08129 | 55.67298 | 4728 ft | 226 kts | 301° |
| 2026-05-06 12:53 | 25.08955 | 55.65863 | 4502 ft | 219 kts | 302° |
| 2026-05-06 12:53 | 25.09768 | 55.64438 | 4177 ft | 221 kts | 301° |
| 2026-05-06 12:53 | 25.10573 | 55.63001 | 3994 ft | 219 kts | 301° |
| 2026-05-06 12:54 | 25.11364 | 55.61579 | 3836 ft | 216 kts | 301° |
| 2026-05-06 12:54 | 25.12128 | 55.60202 | 3785 ft | 204 kts | 301° |
| 2026-05-06 12:54 | 25.12854 | 55.58892 | 3642 ft | 196 kts | 301° |
| 2026-05-06 12:54 | 25.13555 | 55.57623 | 3445 ft | 191 kts | 301° |
| 2026-05-06 12:55 | 25.14239 | 55.56390 | 3230 ft | 187 kts | 302° |
| 2026-05-06 12:55 | 25.14916 | 55.55169 | 2945 ft | 186 kts | 302° |
| 2026-05-06 12:55 | 25.15599 | 55.53939 | 2613 ft | 187 kts | 302° |
| 2026-05-06 12:55 | 25.16257 | 55.52750 | 2503 ft | 177 kts | 302° |
| 2026-05-06 12:56 | 25.16884 | 55.51617 | 2301 ft | 168 kts | 300° |
| 2026-05-06 12:56 | 25.17467 | 55.50562 | 2016 ft | 167 kts | 300° |
| 2026-05-06 12:56 | 25.18078 | 55.49463 | 1991 ft | 166 kts | 301° |
| 2026-05-06 12:56 | 25.18680 | 55.48374 | 1756 ft | 163 kts | 301° |
| 2026-05-06 12:57 | 25.19257 | 55.47325 | 1536 ft | 156 kts | 303° |
| 2026-05-06 12:57 | 25.19817 | 55.46320 | 1368 ft | 155 kts | 303° |
| 2026-05-06 12:57 | 25.20378 | 55.45311 | 1200 ft | 157 kts | 302° |
| 2026-05-06 12:57 | 25.20956 | 55.44259 | 969 ft | 159 kts | 305° |
| 2026-05-06 12:58 | 25.21502 | 55.43239 | 768 ft | 154 kts | 306° |
| 2026-05-06 12:58 | 25.22071 | 55.42229 | 626 ft | 155 kts | 306° |
| 2026-05-06 12:58 | 25.22633 | 55.41200 | 454 ft | 160 kts | 305° |
| 2026-05-06 12:58 | 25.23203 | 55.40165 | 206 ft | 150 kts | 305° |
| 2026-05-06 12:59 | 25.23725 | 55.39237 | 37 ft | 143 kts | 304° |
| 2026-05-06 12:59 | 25.24199 | 55.38391 | 27 ft | 111 kts | 302° |
| 2026-05-06 12:59 | 25.24524 | 55.37804 | 27 ft | 72 kts | 302° |
| 2026-05-06 12:59 | 25.24708 | 55.37471 | 27 ft | 46 kts | 301° |
| 2026-05-06 13:00 | 25.24782 | 55.37160 | 27 ft | 22 kts | 274° |
| 2026-05-06 13:00 | 25.24787 | 55.36993 | 27 ft | 22 kts | 263° |
| 2026-05-06 13:00 | 25.24736 | 55.36924 | 27 ft | 11 kts | 244° |
| 2026-05-06 13:00 | 25.24761 | 55.36823 | 27 ft | 15 kts | 290° |
| 2026-05-06 13:01 | 25.24787 | 55.36709 | 27 ft | 15 kts | 285° |
| 2026-05-06 13:01 | 25.24827 | 55.36599 | 27 ft | 15 kts | 300° |
| 2026-05-06 13:01 | 25.24877 | 55.36503 | 27 ft | 7 kts | 287° |
| 2026-05-06 13:01 | 25.24861 | 55.36475 | 27 ft | 7 kts | 208° |
| 2026-05-06 13:02 | 25.24807 | 55.36442 | 27 ft | 10 kts | 212° |
| 2026-05-06 13:02 | 25.24802 | 55.36438 | 27 ft | 0 kts | 211° |